createdAt,value
2023-05-07T00:02:29.219Z,100349.53
2023-05-07T00:05:14.924Z,100356.25
2023-05-07T00:07:59.802Z,100333.56
2023-05-07T00:10:43.918Z,100346.78
2023-05-07T00:13:28.427Z,100347.00
2023-05-07T00:16:12.414Z,100338.75
2023-05-07T00:18:56.313Z,100353.97
2023-05-07T00:21:41.605Z,100353.72
2023-05-07T00:24:25.502Z,100348.75
2023-05-07T00:27:09.346Z,100353.53
2023-05-07T00:29:53.363Z,100348.25
2023-05-07T00:32:37.807Z,100347.13
2023-05-07T00:35:21.915Z,100344.81
2023-05-07T00:38:07.138Z,100341.06
2023-05-07T00:40:51.673Z,100350.88
2023-05-07T00:43:35.555Z,100360.25
2023-05-07T00:46:20.036Z,100350.25
2023-05-07T00:49:04.199Z,100357.94
2023-05-07T00:51:48.516Z,100352.47
2023-05-07T00:54:34.736Z,100349.56
2023-05-07T00:57:19.293Z,100349.81
2023-05-07T01:00:03.697Z,100360.38
2023-05-07T01:02:49.847Z,100354.41
2023-05-07T01:05:35.043Z,100310.09
2023-05-07T01:08:20.245Z,100363.38
2023-05-07T01:11:05.819Z,100363.56
2023-05-07T01:13:51.967Z,100354.69
2023-05-07T01:16:35.989Z,100323.25
2023-05-07T01:19:21.024Z,100366.13
2023-05-07T01:22:09.710Z,100320.50
2023-05-07T01:25:05.127Z,100345.31
2023-05-07T01:27:50.214Z,100353.28
2023-05-07T01:30:36.952Z,100356.72
2023-05-07T01:33:24.479Z,100357.34
2023-05-07T01:36:10.330Z,100358.59
2023-05-07T01:38:54.918Z,100321.50
2023-05-07T01:41:40.659Z,100350.59
2023-05-07T01:44:24.844Z,100357.22
2023-05-07T01:47:09.358Z,100360.03
2023-05-07T01:49:53.316Z,100352.78
2023-05-07T01:52:38.608Z,100357.03
2023-05-07T01:55:22.949Z,100230.59
2023-05-07T01:58:08.192Z,100342.06
2023-05-07T02:00:52.179Z,100332.84
2023-05-07T02:03:36.102Z,100334.88
2023-05-07T02:06:27.222Z,100340.16
2023-05-07T02:09:18.728Z,100332.34
2023-05-07T02:12:05.659Z,100333.28
2023-05-07T02:14:51.731Z,100305.06
2023-05-07T02:17:36.701Z,100324.94
2023-05-07T02:20:20.659Z,100319.47
2023-05-07T02:23:24.448Z,100328.72
2023-05-07T02:26:08.696Z,100326.41
2023-05-07T02:28:53.760Z,100320.19
2023-05-07T02:31:39.513Z,100308.03
2023-05-07T02:34:23.709Z,100319.22
2023-05-07T02:37:07.611Z,100324.41
2023-05-07T02:39:51.521Z,100313.34
2023-05-07T02:42:35.437Z,100319.31
2023-05-07T02:45:19.691Z,100307.00
2023-05-07T02:48:07.436Z,100291.28
2023-05-07T02:50:51.455Z,100328.38
2023-05-07T02:53:35.433Z,100331.09
2023-05-07T02:56:19.512Z,100304.25
2023-05-07T02:59:03.527Z,100290.13
2023-05-07T03:01:51.798Z,100320.50
2023-05-07T03:04:37.321Z,100332.72
2023-05-07T03:07:21.329Z,100343.47
2023-05-07T03:10:06.140Z,100335.41
2023-05-07T03:12:50.471Z,100339.00
2023-05-07T03:15:35.383Z,100332.88
2023-05-07T03:18:19.662Z,100337.88
2023-05-07T03:21:05.207Z,100333.41
2023-05-07T03:23:49.220Z,100323.69
2023-05-07T03:26:33.418Z,100290.31
2023-05-07T03:29:18.095Z,100347.88
2023-05-07T03:32:02.211Z,100317.19
2023-05-07T03:34:46.237Z,100349.50
2023-05-07T03:37:32.800Z,100353.69
2023-05-07T03:40:16.896Z,100350.25
2023-05-07T03:43:07.910Z,100356.91
2023-05-07T03:45:56.317Z,100362.50
2023-05-07T03:48:43.688Z,100330.75
2023-05-07T03:51:29.690Z,100368.84
2023-05-07T03:54:14.935Z,100374.47
2023-05-07T03:57:02.806Z,100362.03
2023-05-07T03:59:46.765Z,100370.56
2023-05-07T04:02:31.580Z,100369.56
2023-05-07T04:05:16.907Z,100377.44
2023-05-07T04:08:04.331Z,100389.09
2023-05-07T04:10:58.672Z,100363.81
2023-05-07T04:13:45.794Z,100379.09
2023-05-07T04:16:29.880Z,100363.03
2023-05-07T04:19:13.877Z,100386.13
2023-05-07T04:21:58.000Z,100387.88
2023-05-07T04:24:42.291Z,100372.16
2023-05-07T04:27:29.172Z,100394.19
2023-05-07T04:30:14.854Z,100386.84
2023-05-07T04:32:59.108Z,100396.13
2023-05-07T04:35:45.532Z,100401.22
2023-05-07T04:38:29.800Z,100399.78
2023-05-07T04:41:16.193Z,100399.88
2023-05-07T04:44:02.866Z,100400.47
2023-05-07T04:46:49.324Z,100400.66
2023-05-07T04:49:33.282Z,100414.06
2023-05-07T04:52:17.864Z,100414.94
2023-05-07T04:55:02.236Z,100422.22
2023-05-07T04:57:51.568Z,100422.28
2023-05-07T05:00:37.062Z,100409.03
2023-05-07T05:03:23.252Z,100410.22
2023-05-07T05:06:07.599Z,100419.97
2023-05-07T05:08:52.129Z,100419.69
2023-05-07T05:11:35.984Z,100423.38
2023-05-07T05:14:19.977Z,100420.22
2023-05-07T05:17:05.365Z,100420.22
2023-05-07T05:19:49.445Z,100426.59
2023-05-07T05:22:33.225Z,100422.75
2023-05-07T05:25:17.937Z,100426.09
2023-05-07T05:28:02.452Z,100421.69
2023-05-07T05:30:47.678Z,100411.44
2023-05-07T05:33:34.908Z,100415.84
2023-05-07T05:36:21.853Z,100424.84
2023-05-07T05:39:07.508Z,100425.47
2023-05-07T05:41:51.437Z,100415.34
2023-05-07T05:44:35.666Z,100424.94
2023-05-07T05:47:19.625Z,100429.56
2023-05-07T05:50:07.068Z,100435.56
2023-05-07T05:52:51.249Z,100437.13
2023-05-07T05:55:36.657Z,100439.06
2023-05-07T05:58:20.788Z,100439.28
2023-05-07T06:01:10.696Z,100439.41
2023-05-07T06:03:55.431Z,100443.59
2023-05-07T06:06:41.048Z,100410.94
2023-05-07T06:09:25.409Z,100414.59
2023-05-07T06:12:09.513Z,100423.97
2023-05-07T06:14:54.556Z,100445.16
2023-05-07T06:17:38.736Z,100392.34
2023-05-07T06:20:23.589Z,100452.00
2023-05-07T06:23:09.739Z,100422.69
2023-05-07T06:25:54.146Z,100452.09
2023-05-07T06:28:42.413Z,100451.09
2023-05-07T06:31:32.572Z,100423.97
2023-05-07T06:34:20.918Z,100445.50
2023-05-07T06:37:06.331Z,100415.97
2023-05-07T06:40:09.965Z,100440.19
2023-05-07T06:42:56.774Z,100440.00
2023-05-07T06:45:49.091Z,100448.19
2023-05-07T06:48:33.368Z,100446.41
2023-05-07T06:51:22.112Z,100416.31
2023-05-07T06:54:06.744Z,100411.66
2023-05-07T06:56:54.860Z,100415.00
2023-05-07T06:59:41.299Z,100446.69
2023-05-07T07:02:26.229Z,100452.22
2023-05-07T07:05:10.790Z,100441.28
2023-05-07T07:07:55.794Z,100418.97
2023-05-07T07:10:40.397Z,100445.72
2023-05-07T07:13:26.552Z,100429.19
2023-05-07T07:16:10.912Z,100454.00
2023-05-07T07:18:55.492Z,100461.53
2023-05-07T07:21:39.673Z,100359.28
2023-05-07T07:24:23.638Z,100462.81
2023-05-07T07:27:12.480Z,100460.34
2023-05-07T07:29:58.569Z,100457.56
2023-05-07T07:32:43.046Z,100471.06
2023-05-07T07:35:27.244Z,100462.91
2023-05-07T07:38:11.452Z,100464.47
2023-05-07T07:40:56.189Z,100440.91
2023-05-07T07:43:41.387Z,100452.84
2023-05-07T07:46:28.141Z,100455.34
2023-05-07T07:49:12.406Z,100459.59
2023-05-07T07:51:57.592Z,100418.41
2023-05-07T07:54:41.616Z,100465.38
2023-05-07T07:57:26.175Z,100437.13
2023-05-07T08:00:11.739Z,100468.78
2023-05-07T08:03:04.447Z,100469.66
2023-05-07T08:05:52.766Z,100465.84
2023-05-07T08:08:42.312Z,100452.28
2023-05-07T08:11:27.204Z,100472.81
2023-05-07T08:14:13.815Z,100465.25
2023-05-07T08:16:58.091Z,100429.56
2023-05-07T08:19:43.912Z,100460.84
2023-05-07T08:22:31.048Z,100459.34
2023-05-07T08:25:15.404Z,100431.72
2023-05-07T08:28:00.170Z,100450.56
2023-05-07T08:30:44.623Z,100455.06
2023-05-07T08:33:28.898Z,100456.56
2023-05-07T08:36:16.055Z,100452.19
2023-05-07T08:39:00.462Z,100456.03
2023-05-07T08:41:47.118Z,100429.69
2023-05-07T08:44:35.902Z,100461.78
2023-05-07T08:47:22.173Z,100455.06
2023-05-07T08:50:10.174Z,100447.50
2023-05-07T08:52:57.659Z,100468.00
2023-05-07T08:55:42.194Z,100439.50
2023-05-07T08:58:26.503Z,100445.16
2023-05-07T09:01:12.533Z,100449.00
2023-05-07T09:03:57.493Z,100448.31
2023-05-07T09:06:43.319Z,100451.59
2023-05-07T09:09:31.390Z,100453.69
2023-05-07T09:12:15.495Z,100444.53
2023-05-07T09:14:59.671Z,100448.50
2023-05-07T09:17:46.125Z,100456.72
2023-05-07T09:20:33.167Z,100446.56
2023-05-07T09:23:18.688Z,100436.31
2023-05-07T09:26:05.936Z,100447.19
2023-05-07T09:28:51.530Z,100442.09
2023-05-07T09:31:39.284Z,100436.97
2023-05-07T09:34:25.679Z,100431.75
2023-05-07T09:37:10.261Z,100384.06
2023-05-07T09:39:54.553Z,100423.13
2023-05-07T09:42:42.466Z,100423.06
2023-05-07T09:45:28.195Z,100433.34
2023-05-07T09:48:13.983Z,100421.13
2023-05-07T09:51:00.058Z,100416.94
2023-05-07T09:53:48.399Z,100425.91
2023-05-07T09:56:33.347Z,100403.75
2023-05-07T09:59:19.862Z,100420.94
2023-05-07T10:02:06.533Z,100411.59
2023-05-07T10:04:57.156Z,100421.31
2023-05-07T10:07:49.010Z,100332.00
2023-05-07T10:10:36.582Z,100418.78
2023-05-07T10:13:24.213Z,100399.28
2023-05-07T10:16:13.502Z,100410.84
2023-05-07T10:19:02.547Z,100415.94
2023-05-07T10:21:53.688Z,100413.00
2023-05-07T10:24:39.190Z,100407.97
2023-05-07T10:27:29.267Z,100405.19
2023-05-07T10:30:33.165Z,100387.31
2023-05-07T10:33:24.616Z,100401.28
2023-05-07T10:36:09.442Z,100386.00
2023-05-07T10:38:54.611Z,100399.56
2023-05-07T10:41:40.216Z,100388.81
2023-05-07T10:44:29.483Z,100393.72
2023-05-07T10:47:20.101Z,100399.28
2023-05-07T10:50:25.842Z,100389.78
2023-05-07T10:53:28.686Z,100403.94
2023-05-07T10:56:39.200Z,100386.09
2023-05-07T10:59:44.757Z,100385.41
2023-05-07T11:03:08.439Z,100391.03
2023-05-07T11:06:17.191Z,100401.47
2023-05-07T11:09:27.447Z,100410.00
2023-05-07T11:12:15.309Z,100389.00
2023-05-07T11:15:07.999Z,100406.22
2023-05-07T11:17:58.872Z,100404.53
2023-05-07T11:20:48.767Z,100410.31
2023-05-07T11:24:00.202Z,100403.81
2023-05-07T11:26:53.884Z,100393.47
2023-05-07T11:29:40.168Z,100383.88
2023-05-07T11:32:30.777Z,100404.00
2023-05-07T11:35:18.141Z,100410.66
2023-05-07T11:38:07.186Z,100413.09
2023-05-07T11:40:55.368Z,100402.78
2023-05-07T11:43:41.223Z,100417.94
2023-05-07T11:46:25.544Z,100412.50
2023-05-07T11:49:09.653Z,100419.78
2023-05-07T11:51:53.811Z,100411.03
2023-05-07T11:54:40.231Z,100402.19
2023-05-07T11:57:26.359Z,100406.97
2023-05-07T12:00:11.900Z,100407.72
2023-05-07T12:02:58.940Z,100399.06
2023-05-07T12:05:43.740Z,100397.94
2023-05-07T12:08:27.742Z,100405.13
2023-05-07T12:11:14.876Z,100395.19
2023-05-07T12:14:00.441Z,100394.56
2023-05-07T12:16:45.275Z,100380.25
2023-05-07T12:19:30.362Z,100398.56
2023-05-07T12:22:15.227Z,100401.47
2023-05-07T12:25:00.719Z,100396.63
2023-05-07T12:27:54.321Z,100386.16
2023-05-07T12:30:41.392Z,100386.78
2023-05-07T12:33:27.694Z,100385.59
2023-05-07T12:36:14.573Z,100387.47
2023-05-07T12:38:58.555Z,100390.91
2023-05-07T12:41:57.677Z,100355.72
2023-05-07T12:44:44.488Z,100392.84
2023-05-07T12:47:29.986Z,100390.72
2023-05-07T12:50:15.285Z,100392.63
2023-05-07T12:53:00.685Z,100393.34
2023-05-07T12:55:46.077Z,100390.50
2023-05-07T12:58:31.512Z,100364.66
2023-05-07T13:01:16.855Z,100382.91
2023-05-07T13:04:07.015Z,100387.25
2023-05-07T13:06:54.176Z,100385.16
2023-05-07T13:09:38.590Z,100373.69
2023-05-07T13:12:22.613Z,100378.66
2023-05-07T13:15:07.520Z,100378.31
2023-05-07T13:17:51.573Z,100372.97
2023-05-07T13:20:37.010Z,100374.81
2023-05-07T13:23:21.121Z,100380.34
2023-05-07T13:26:14.519Z,100382.31
2023-05-07T13:29:09.471Z,100375.28
2023-05-07T13:31:54.660Z,100379.47
2023-05-07T13:34:38.941Z,100370.75
2023-05-07T13:37:24.472Z,100377.81
2023-05-07T13:40:10.216Z,100382.44
2023-05-07T13:42:54.407Z,100384.00
2023-05-07T13:45:38.235Z,100386.91
2023-05-07T13:48:22.091Z,100383.59
2023-05-07T13:51:06.032Z,100372.25
2023-05-07T13:53:51.497Z,100387.91
2023-05-07T13:56:35.593Z,100382.13
2023-05-07T13:59:19.520Z,100386.59
2023-05-07T14:02:03.350Z,100356.50
2023-05-07T14:04:47.319Z,100367.28
2023-05-07T14:07:31.347Z,100402.25
2023-05-07T14:10:16.628Z,100397.34
2023-05-07T14:13:00.731Z,100397.03
2023-05-07T14:15:47.575Z,100401.84
2023-05-07T14:18:31.634Z,100395.09
2023-05-07T14:21:15.552Z,100386.25
2023-05-07T14:23:59.434Z,100394.06
2023-05-07T14:26:44.766Z,100401.41
2023-05-07T14:29:28.619Z,100399.84
2023-05-07T14:32:12.665Z,100408.22
2023-05-07T14:34:56.514Z,100406.63
2023-05-07T14:37:40.434Z,100413.94
2023-05-07T14:40:24.549Z,100409.91
2023-05-07T14:43:09.887Z,100409.59
2023-05-07T14:45:54.665Z,100407.69
2023-05-07T14:48:38.463Z,100414.25
2023-05-07T14:51:23.173Z,100393.75
2023-05-07T14:54:07.046Z,100392.25
2023-05-07T14:56:51.389Z,100392.47
2023-05-07T14:59:36.634Z,100410.41
2023-05-07T15:02:21.222Z,100405.75
2023-05-07T15:05:06.079Z,100404.09
2023-05-07T15:07:49.920Z,100390.81
2023-05-07T15:10:41.330Z,100410.31
2023-05-07T15:13:25.486Z,100411.09
2023-05-07T15:16:10.963Z,100403.44
2023-05-07T15:18:54.849Z,100395.59
2023-05-07T15:21:39.439Z,100400.53
2023-05-07T15:24:23.239Z,100378.34
2023-05-07T15:27:07.504Z,100404.19
2023-05-07T15:29:51.763Z,100397.91
2023-05-07T15:32:37.407Z,100387.25
2023-05-07T15:35:23.202Z,100410.25
2023-05-07T15:38:09.721Z,100391.00
2023-05-07T15:40:53.887Z,100384.78
2023-05-07T15:43:46.937Z,100405.25
2023-05-07T15:46:31.080Z,100410.59
2023-05-07T15:49:16.618Z,100406.66
2023-05-07T15:52:00.691Z,100415.69
2023-05-07T15:54:44.778Z,100415.88
2023-05-07T15:57:28.880Z,100415.88
2023-05-07T16:00:14.089Z,100391.34
2023-05-07T16:02:58.299Z,100432.25
2023-05-07T16:05:43.946Z,100390.53
2023-05-07T16:08:28.343Z,100428.25
2023-05-07T16:11:12.585Z,100407.03
2023-05-07T16:13:56.594Z,100431.47
2023-05-07T16:16:41.192Z,100428.84
2023-05-07T16:19:25.251Z,100419.50
2023-05-07T16:22:11.331Z,100432.63
2023-05-07T16:24:55.374Z,100440.78
2023-05-07T16:27:39.506Z,100435.72
2023-05-07T16:30:23.725Z,100429.38
2023-05-07T16:33:08.277Z,100434.63
2023-05-07T16:35:55.856Z,100431.69
2023-05-07T16:38:41.455Z,100408.38
2023-05-07T16:41:26.385Z,100442.16
2023-05-07T16:44:11.013Z,100450.88
2023-05-07T16:46:55.019Z,100440.44
2023-05-07T16:49:39.081Z,100419.16
2023-05-07T16:52:23.214Z,100431.91
2023-05-07T16:55:09.632Z,100440.47
2023-05-07T16:57:53.777Z,100411.03
2023-05-07T17:00:49.198Z,100413.69
2023-05-07T17:03:35.168Z,100437.56
2023-05-07T17:06:19.400Z,100416.75
2023-05-07T17:09:03.587Z,100415.41
2023-05-07T17:11:49.072Z,100454.44
2023-05-07T17:14:33.268Z,100454.19
2023-05-07T17:17:17.369Z,100466.22
2023-05-07T17:20:01.588Z,100470.41
2023-05-07T17:22:49.244Z,100462.00
2023-05-07T17:25:33.691Z,100438.66
2023-05-07T17:28:19.240Z,100454.31
2023-05-07T17:31:03.197Z,100441.97
2023-05-07T17:33:47.616Z,100476.44
2023-05-07T17:36:33.190Z,100446.16
2023-05-07T17:39:17.357Z,100449.47
2023-05-07T17:42:01.664Z,100410.22
2023-05-07T17:44:47.278Z,100483.09
2023-05-07T17:47:31.583Z,100485.22
2023-05-07T17:50:17.012Z,100487.94
2023-05-07T17:53:02.177Z,100460.69
2023-05-07T17:55:47.327Z,100498.50
2023-05-07T17:58:31.725Z,100497.81
2023-05-07T18:01:17.584Z,100503.66
2023-05-07T18:04:01.905Z,100469.53
2023-05-07T18:06:46.381Z,100513.09
2023-05-07T18:09:30.482Z,100471.91
2023-05-07T18:12:14.551Z,100480.44
2023-05-07T18:14:58.936Z,100519.75
2023-05-07T18:17:44.616Z,100509.81
2023-05-07T18:20:28.790Z,100515.28
2023-05-07T18:23:13.125Z,100514.88
2023-05-07T18:25:57.235Z,100520.19
2023-05-07T18:28:41.610Z,100487.00
2023-05-07T18:31:25.600Z,100507.97
2023-05-07T18:34:10.979Z,100513.94
2023-05-07T18:36:54.878Z,100522.22
2023-05-07T18:39:38.908Z,100516.44
2023-05-07T18:42:23.087Z,100513.66
2023-05-07T18:45:08.199Z,100508.28
2023-05-07T18:47:52.782Z,100522.34
2023-05-07T18:50:38.266Z,100497.63
2023-05-07T18:53:22.342Z,100507.91
2023-05-07T18:56:08.887Z,100527.19
2023-05-07T18:58:52.909Z,100514.06
2023-05-07T19:01:37.114Z,100525.81
2023-05-07T19:04:21.217Z,100529.31
2023-05-07T19:07:06.930Z,100524.13
2023-05-07T19:10:04.221Z,100530.44
2023-05-07T19:12:51.397Z,100519.47
2023-05-07T19:15:35.789Z,100524.66
2023-05-07T19:18:19.959Z,100529.69
2023-05-07T19:21:03.809Z,100515.47
2023-05-07T19:23:51.264Z,100522.28
2023-05-07T19:26:35.545Z,100528.56
2023-05-07T19:29:20.035Z,100526.50
2023-05-07T19:32:04.691Z,100518.81
2023-05-07T19:34:48.623Z,100525.63
2023-05-07T19:37:32.589Z,100523.91
2023-05-07T19:40:18.394Z,100526.19
2023-05-07T19:43:03.984Z,100527.75
2023-05-07T19:45:48.334Z,100522.19
2023-05-07T19:48:32.341Z,100524.25
2023-05-07T19:51:16.407Z,100540.50
2023-05-07T19:54:03.686Z,100537.97
2023-05-07T19:56:54.446Z,100551.31
2023-05-07T19:59:38.319Z,100531.97
2023-05-07T20:02:22.344Z,100559.72
2023-05-07T20:05:07.032Z,100548.09
2023-05-07T20:07:50.921Z,100547.03
2023-05-07T20:10:37.774Z,100553.03
2023-05-07T20:13:23.233Z,100559.50
2023-05-07T20:16:07.369Z,100557.97
2023-05-07T20:18:51.367Z,100560.63
2023-05-07T20:21:35.326Z,100570.63
2023-05-07T20:24:20.100Z,100562.13
2023-05-07T20:27:06.843Z,100555.66
2023-05-07T20:29:52.274Z,100559.09
2023-05-07T20:32:36.543Z,100563.31
2023-05-07T20:35:20.592Z,100555.91
2023-05-07T20:38:04.543Z,100566.63
2023-05-07T20:40:48.432Z,100564.44
2023-05-07T20:43:32.220Z,100554.13
2023-05-07T20:46:22.857Z,100560.97
2023-05-07T20:49:07.095Z,100563.75
2023-05-07T20:51:51.079Z,100560.19
2023-05-07T20:54:40.087Z,100564.69
2023-05-07T20:57:24.245Z,100565.97
2023-05-07T21:00:09.493Z,100572.00
2023-05-07T21:02:54.649Z,100575.41
2023-05-07T21:05:38.680Z,100568.97
2023-05-07T21:08:23.014Z,100546.47
2023-05-07T21:11:08.029Z,100562.34
2023-05-07T21:13:52.010Z,100566.88
2023-05-07T21:16:36.084Z,100566.69
2023-05-07T21:19:23.588Z,100576.66
2023-05-07T21:22:07.764Z,100577.47
2023-05-07T21:24:51.714Z,100580.88
2023-05-07T21:27:35.659Z,100575.44
2023-05-07T21:30:19.553Z,100564.41
2023-05-07T21:33:04.879Z,100575.91
2023-05-07T21:35:51.443Z,100579.41
2023-05-07T21:38:35.366Z,100589.50
2023-05-07T21:41:20.459Z,100578.16
2023-05-07T21:44:04.499Z,100560.44
2023-05-07T21:46:48.367Z,100572.94
2023-05-07T21:49:32.246Z,100568.34
2023-05-07T21:52:18.570Z,100572.63
2023-05-07T21:55:02.472Z,100571.91
2023-05-07T21:58:01.313Z,100572.88
2023-05-07T22:00:48.800Z,100568.63
2023-05-07T22:03:32.718Z,100568.63
2023-05-07T22:06:21.656Z,100569.91
2023-05-07T22:09:07.928Z,100548.34
2023-05-07T22:11:51.752Z,100560.75
2023-05-07T22:14:35.929Z,100560.81
2023-05-07T22:17:19.794Z,100555.84
2023-05-07T22:20:04.093Z,100548.41
2023-05-07T22:22:50.244Z,100553.84
2023-05-07T22:25:37.379Z,100557.31
2023-05-07T22:28:21.466Z,100553.34
2023-05-07T22:31:05.418Z,100564.34
2023-05-07T22:33:49.284Z,100558.00
2023-05-07T22:36:33.360Z,100550.34
2023-05-07T22:39:17.149Z,100552.19
2023-05-07T22:42:02.504Z,100550.03
2023-05-07T22:44:46.415Z,100552.03
2023-05-07T22:47:31.004Z,100544.59
2023-05-07T22:50:15.400Z,100489.94
2023-05-07T22:52:59.390Z,100539.81
2023-05-07T22:55:43.243Z,100536.50
2023-05-07T22:58:28.452Z,100526.25
2023-05-07T23:01:16.482Z,100531.91
2023-05-07T23:04:00.434Z,100515.38
2023-05-07T23:06:44.282Z,100521.09
2023-05-07T23:09:28.154Z,100537.38
2023-05-07T23:12:12.452Z,100524.44
2023-05-07T23:14:57.862Z,100514.84
2023-05-07T23:17:41.854Z,100508.31
2023-05-07T23:20:25.713Z,100524.78
2023-05-07T23:23:09.640Z,100509.94
2023-05-07T23:25:53.746Z,100511.78
2023-05-07T23:28:37.655Z,100504.81
2023-05-07T23:31:22.992Z,100505.25
2023-05-07T23:34:06.813Z,100505.50
2023-05-07T23:36:51.229Z,100511.50
2023-05-07T23:39:35.242Z,100507.56
2023-05-07T23:42:18.976Z,100503.75
2023-05-07T23:45:02.943Z,100512.78
2023-05-07T23:47:52.423Z,100505.25
2023-05-07T23:50:36.585Z,100500.66
2023-05-07T23:53:20.451Z,100496.38
2023-05-07T23:56:04.547Z,100487.34
2023-05-07T23:58:48.398Z,100426.72
